sensor_id;sensor_type;location;lat;lon;timestamp;P1;durP1;ratioP1;P2;durP2;ratioP2
21878;SDS011;27908;42.708;23.278;2023-03-01T00:01:01;7.93;;;3.17;;
21878;SDS011;27908;42.708;23.278;2023-03-01T00:03:28;7.32;;;3.30;;
21878;SDS011;27908;42.708;23.278;2023-03-01T00:05:53;7.73;;;3.17;;
21878;SDS011;27908;42.708;23.278;2023-03-01T00:08:18;7.50;;;3.03;;
21878;SDS011;27908;42.708;23.278;2023-03-01T00:10:44;7.60;;;3.63;;
21878;SDS011;27908;42.708;23.278;2023-03-01T00:13:09;8.35;;;3.38;;
21878;SDS011;27908;42.708;23.278;2023-03-01T00:15:37;8.17;;;3.17;;
21878;SDS011;27908;42.708;23.278;2023-03-01T00:18:04;8.18;;;3.33;;
21878;SDS011;27908;42.708;23.278;2023-03-01T00:20:29;7.00;;;2.70;;
21878;SDS011;27908;42.708;23.278;2023-03-01T00:22:55;7.17;;;2.67;;
21878;SDS011;27908;42.708;23.278;2023-03-01T00:25:20;5.23;;;2.43;;
21878;SDS011;27908;42.708;23.278;2023-03-01T00:27:46;7.43;;;2.72;;
21878;SDS011;27908;42.708;23.278;2023-03-01T00:30:13;7.47;;;2.90;;
21878;SDS011;27908;42.708;23.278;2023-03-01T00:32:39;6.45;;;2.72;;
21878;SDS011;27908;42.708;23.278;2023-03-01T00:35:04;5.90;;;2.53;;
21878;SDS011;27908;42.708;23.278;2023-03-01T00:37:30;6.35;;;2.40;;
21878;SDS011;27908;42.708;23.278;2023-03-01T00:39:56;8.10;;;2.80;;
21878;SDS011;27908;42.708;23.278;2023-03-01T00:42:21;7.90;;;3.10;;
21878;SDS011;27908;42.708;23.278;2023-03-01T00:44:47;8.02;;;3.08;;
21878;SDS011;27908;42.708;23.278;2023-03-01T00:47:12;7.30;;;3.03;;
21878;SDS011;27908;42.708;23.278;2023-03-01T00:49:39;6.05;;;2.30;;
21878;SDS011;27908;42.708;23.278;2023-03-01T00:52:04;7.43;;;3.27;;
21878;SDS011;27908;42.708;23.278;2023-03-01T00:54:30;6.68;;;2.72;;
21878;SDS011;27908;42.708;23.278;2023-03-01T00:56:55;7.43;;;2.97;;
21878;SDS011;27908;42.708;23.278;2023-03-01T00:59:21;7.95;;;3.10;;
21878;SDS011;27908;42.708;23.278;2023-03-01T01:01:46;6.70;;;2.70;;
21878;SDS011;27908;42.708;23.278;2023-03-01T01:04:13;5.50;;;2.30;;
21878;SDS011;27908;42.708;23.278;2023-03-01T01:06:39;6.95;;;2.55;;
21878;SDS011;27908;42.708;23.278;2023-03-01T01:09:10;7.32;;;2.85;;
21878;SDS011;27908;42.708;23.278;2023-03-01T01:11:42;7.90;;;3.30;;
21878;SDS011;27908;42.708;23.278;2023-03-01T01:14:08;6.72;;;2.70;;
21878;SDS011;27908;42.708;23.278;2023-03-01T01:16:34;4.87;;;2.10;;
21878;SDS011;27908;42.708;23.278;2023-03-01T01:18:59;7.13;;;2.53;;
21878;SDS011;27908;42.708;23.278;2023-03-01T01:21:25;6.50;;;2.70;;
21878;SDS011;27908;42.708;23.278;2023-03-01T01:23:51;6.60;;;2.90;;
21878;SDS011;27908;42.708;23.278;2023-03-01T01:26:18;6.75;;;2.75;;
21878;SDS011;27908;42.708;23.278;2023-03-01T01:28:45;7.22;;;3.03;;
21878;SDS011;27908;42.708;23.278;2023-03-01T01:31:11;7.93;;;3.13;;
21878;SDS011;27908;42.708;23.278;2023-03-01T01:33:37;6.70;;;3.23;;
21878;SDS011;27908;42.708;23.278;2023-03-01T01:36:04;7.68;;;3.15;;
21878;SDS011;27908;42.708;23.278;2023-03-01T01:38:30;5.22;;;2.13;;
21878;SDS011;27908;42.708;23.278;2023-03-01T01:40:57;6.32;;;2.60;;
21878;SDS011;27908;42.708;23.278;2023-03-01T01:43:28;6.80;;;2.47;;
21878;SDS011;27908;42.708;23.278;2023-03-01T01:49:00;5.43;;;2.17;;
21878;SDS011;27908;42.708;23.278;2023-03-01T01:51:49;6.57;;;2.40;;
21878;SDS011;27908;42.708;23.278;2023-03-01T01:57:16;6.57;;;3.23;;
21878;SDS011;27908;42.708;23.278;2023-03-01T01:59:48;8.10;;;3.22;;
21878;SDS011;27908;42.708;23.278;2023-03-01T02:02:17;6.28;;;2.53;;
21878;SDS011;27908;42.708;23.278;2023-03-01T02:04:43;6.75;;;2.35;;
21878;SDS011;27908;42.708;23.278;2023-03-01T02:07:16;8.30;;;3.43;;
21878;SDS011;27908;42.708;23.278;2023-03-01T02:09:46;7.95;;;3.42;;
21878;SDS011;27908;42.708;23.278;2023-03-01T02:12:13;8.93;;;3.28;;
21878;SDS011;27908;42.708;23.278;2023-03-01T02:14:40;8.95;;;3.70;;
21878;SDS011;27908;42.708;23.278;2023-03-01T02:17:05;8.50;;;4.10;;
21878;SDS011;27908;42.708;23.278;2023-03-01T02:19:40;12.93;;;5.30;;
21878;SDS011;27908;42.708;23.278;2023-03-01T02:22:20;9.32;;;4.25;;
21878;SDS011;27908;42.708;23.278;2023-03-01T02:27:14;10.90;;;3.93;;
21878;SDS011;27908;42.708;23.278;2023-03-01T02:29:42;7.72;;;2.95;;
21878;SDS011;27908;42.708;23.278;2023-03-01T02:32:09;7.00;;;3.30;;
21878;SDS011;27908;42.708;23.278;2023-03-01T02:34:36;7.00;;;3.43;;
21878;SDS011;27908;42.708;23.278;2023-03-01T02:37:09;5.88;;;2.35;;
21878;SDS011;27908;42.708;23.278;2023-03-01T02:39:41;5.40;;;2.10;;
21878;SDS011;27908;42.708;23.278;2023-03-01T02:42:12;5.57;;;2.38;;
21878;SDS011;27908;42.708;23.278;2023-03-01T02:44:40;5.93;;;2.37;;
21878;SDS011;27908;42.708;23.278;2023-03-01T02:47:06;7.97;;;2.80;;
21878;SDS011;27908;42.708;23.278;2023-03-01T02:49:32;6.00;;;2.33;;
21878;SDS011;27908;42.708;23.278;2023-03-01T02:55:11;5.20;;;2.10;;
21878;SDS011;27908;42.708;23.278;2023-03-01T02:57:40;6.13;;;2.50;;
21878;SDS011;27908;42.708;23.278;2023-03-01T03:00:09;5.72;;;2.25;;
21878;SDS011;27908;42.708;23.278;2023-03-01T03:02:43;6.28;;;2.17;;
21878;SDS011;27908;42.708;23.278;2023-03-01T03:05:11;6.47;;;2.83;;
21878;SDS011;27908;42.708;23.278;2023-03-01T03:07:40;6.18;;;2.33;;
21878;SDS011;27908;42.708;23.278;2023-03-01T03:10:09;5.60;;;2.45;;
21878;SDS011;27908;42.708;23.278;2023-03-01T03:12:40;5.57;;;2.10;;
21878;SDS011;27908;42.708;23.278;2023-03-01T03:15:07;6.20;;;2.70;;
21878;SDS011;27908;42.708;23.278;2023-03-01T03:17:35;5.30;;;2.10;;
21878;SDS011;27908;42.708;23.278;2023-03-01T03:20:02;5.63;;;2.15;;
21878;SDS011;27908;42.708;23.278;2023-03-01T03:22:28;6.22;;;2.40;;
21878;SDS011;27908;42.708;23.278;2023-03-01T03:24:54;6.87;;;3.00;;
21878;SDS011;27908;42.708;23.278;2023-03-01T03:27:19;6.17;;;2.87;;
21878;SDS011;27908;42.708;23.278;2023-03-01T03:29:45;6.40;;;3.00;;
21878;SDS011;27908;42.708;23.278;2023-03-01T03:32:10;6.03;;;2.22;;
21878;SDS011;27908;42.708;23.278;2023-03-01T03:34:35;5.80;;;1.97;;
21878;SDS011;27908;42.708;23.278;2023-03-01T03:37:01;5.87;;;2.50;;
21878;SDS011;27908;42.708;23.278;2023-03-01T03:39:26;7.87;;;3.10;;
21878;SDS011;27908;42.708;23.278;2023-03-01T03:41:53;6.38;;;2.30;;
21878;SDS011;27908;42.708;23.278;2023-03-01T03:44:18;6.13;;;2.63;;
21878;SDS011;27908;42.708;23.278;2023-03-01T03:46:45;7.20;;;3.22;;
21878;SDS011;27908;42.708;23.278;2023-03-01T03:49:10;7.20;;;2.70;;
21878;SDS011;27908;42.708;23.278;2023-03-01T03:51:36;7.90;;;3.00;;
21878;SDS011;27908;42.708;23.278;2023-03-01T03:54:01;7.07;;;2.83;;
21878;SDS011;27908;42.708;23.278;2023-03-01T03:56:27;6.05;;;2.53;;
21878;SDS011;27908;42.708;23.278;2023-03-01T03:58:52;9.07;;;3.37;;
21878;SDS011;27908;42.708;23.278;2023-03-01T04:01:18;7.40;;;2.43;;
21878;SDS011;27908;42.708;23.278;2023-03-01T04:03:43;7.10;;;2.88;;
21878;SDS011;27908;42.708;23.278;2023-03-01T04:06:12;7.23;;;2.90;;
21878;SDS011;27908;42.708;23.278;2023-03-01T04:08:39;6.93;;;2.80;;
21878;SDS011;27908;42.708;23.278;2023-03-01T04:11:05;7.20;;;3.28;;
21878;SDS011;27908;42.708;23.278;2023-03-01T04:13:49;6.90;;;2.72;;
21878;SDS011;27908;42.708;23.278;2023-03-01T04:16:16;7.60;;;3.30;;
21878;SDS011;27908;42.708;23.278;2023-03-01T04:18:42;6.77;;;2.90;;
21878;SDS011;27908;42.708;23.278;2023-03-01T04:21:08;7.20;;;2.83;;
21878;SDS011;27908;42.708;23.278;2023-03-01T04:23:35;7.55;;;2.72;;
21878;SDS011;27908;42.708;23.278;2023-03-01T04:26:01;7.47;;;2.90;;
21878;SDS011;27908;42.708;23.278;2023-03-01T04:28:27;4.93;;;2.08;;
21878;SDS011;27908;42.708;23.278;2023-03-01T04:30:54;6.20;;;2.55;;
21878;SDS011;27908;42.708;23.278;2023-03-01T04:33:22;6.77;;;3.07;;
21878;SDS011;27908;42.708;23.278;2023-03-01T04:35:48;5.95;;;2.60;;
21878;SDS011;27908;42.708;23.278;2023-03-01T04:41:02;6.75;;;3.10;;
21878;SDS011;27908;42.708;23.278;2023-03-01T04:43:29;6.28;;;2.40;;
21878;SDS011;27908;42.708;23.278;2023-03-01T04:45:54;6.97;;;2.93;;
21878;SDS011;27908;42.708;23.278;2023-03-01T04:48:27;5.80;;;2.65;;
21878;SDS011;27908;42.708;23.278;2023-03-01T04:50:53;6.13;;;2.17;;
21878;SDS011;27908;42.708;23.278;2023-03-01T04:53:18;6.73;;;2.63;;
21878;SDS011;27908;42.708;23.278;2023-03-01T04:55:44;6.70;;;2.57;;
21878;SDS011;27908;42.708;23.278;2023-03-01T04:58:09;6.68;;;2.63;;
21878;SDS011;27908;42.708;23.278;2023-03-01T05:00:34;7.77;;;3.40;;
21878;SDS011;27908;42.708;23.278;2023-03-01T05:03:00;13.17;;;4.60;;
21878;SDS011;27908;42.708;23.278;2023-03-01T05:05:33;29.48;;;11.10;;
21878;SDS011;27908;42.708;23.278;2023-03-01T05:08:02;10.83;;;4.70;;
21878;SDS011;27908;42.708;23.278;2023-03-01T05:10:29;7.97;;;3.22;;
21878;SDS011;27908;42.708;23.278;2023-03-01T05:12:56;8.07;;;3.58;;
21878;SDS011;27908;42.708;23.278;2023-03-01T05:15:23;8.68;;;3.70;;
21878;SDS011;27908;42.708;23.278;2023-03-01T05:17:53;10.32;;;3.45;;
21878;SDS011;27908;42.708;23.278;2023-03-01T05:20:20;8.90;;;3.23;;
21878;SDS011;27908;42.708;23.278;2023-03-01T05:22:49;10.65;;;3.72;;
21878;SDS011;27908;42.708;23.278;2023-03-01T05:25:15;9.10;;;3.67;;
21878;SDS011;27908;42.708;23.278;2023-03-01T05:27:40;8.52;;;3.40;;
21878;SDS011;27908;42.708;23.278;2023-03-01T05:30:06;8.07;;;3.53;;
21878;SDS011;27908;42.708;23.278;2023-03-01T05:32:41;7.22;;;3.33;;
21878;SDS011;27908;42.708;23.278;2023-03-01T05:35:09;8.57;;;4.00;;
21878;SDS011;27908;42.708;23.278;2023-03-01T05:37:41;7.70;;;3.13;;
21878;SDS011;27908;42.708;23.278;2023-03-01T05:40:08;7.70;;;3.33;;
21878;SDS011;27908;42.708;23.278;2023-03-01T05:42:41;8.30;;;3.30;;
21878;SDS011;27908;42.708;23.278;2023-03-01T05:45:14;8.77;;;3.53;;
21878;SDS011;27908;42.708;23.278;2023-03-01T05:47:40;11.20;;;4.13;;
21878;SDS011;27908;42.708;23.278;2023-03-01T05:50:18;7.75;;;3.35;;
21878;SDS011;27908;42.708;23.278;2023-03-01T05:52:51;7.78;;;3.33;;
21878;SDS011;27908;42.708;23.278;2023-03-01T05:55:21;9.25;;;3.58;;
21878;SDS011;27908;42.708;23.278;2023-03-01T05:57:47;7.67;;;3.33;;
21878;SDS011;27908;42.708;23.278;2023-03-01T06:00:18;7.88;;;2.58;;
21878;SDS011;27908;42.708;23.278;2023-03-01T06:02:47;8.75;;;3.85;;
21878;SDS011;27908;42.708;23.278;2023-03-01T06:05:13;7.87;;;3.67;;
21878;SDS011;27908;42.708;23.278;2023-03-01T06:07:39;8.02;;;3.33;;
21878;SDS011;27908;42.708;23.278;2023-03-01T06:10:06;9.05;;;3.65;;
21878;SDS011;27908;42.708;23.278;2023-03-01T06:12:32;9.38;;;4.10;;
21878;SDS011;27908;42.708;23.278;2023-03-01T06:14:59;9.47;;;4.90;;
21878;SDS011;27908;42.708;23.278;2023-03-01T06:17:25;8.75;;;3.70;;
21878;SDS011;27908;42.708;23.278;2023-03-01T06:19:50;8.13;;;3.50;;
21878;SDS011;27908;42.708;23.278;2023-03-01T06:22:15;8.00;;;3.53;;
21878;SDS011;27908;42.708;23.278;2023-03-01T06:24:41;6.85;;;2.83;;
21878;SDS011;27908;42.708;23.278;2023-03-01T06:27:06;6.80;;;2.87;;
21878;SDS011;27908;42.708;23.278;2023-03-01T06:29:32;9.97;;;4.20;;
21878;SDS011;27908;42.708;23.278;2023-03-01T06:31:57;17.23;;;3.03;;
21878;SDS011;27908;42.708;23.278;2023-03-01T06:34:23;8.38;;;3.55;;
21878;SDS011;27908;42.708;23.278;2023-03-01T06:36:48;7.13;;;3.13;;
21878;SDS011;27908;42.708;23.278;2023-03-01T06:39:13;8.07;;;3.77;;
21878;SDS011;27908;42.708;23.278;2023-03-01T06:41:39;8.47;;;2.90;;
21878;SDS011;27908;42.708;23.278;2023-03-01T06:44:04;9.63;;;3.60;;
21878;SDS011;27908;42.708;23.278;2023-03-01T06:46:30;8.35;;;2.90;;
21878;SDS011;27908;42.708;23.278;2023-03-01T06:48:55;7.03;;;3.13;;
21878;SDS011;27908;42.708;23.278;2023-03-01T06:51:21;6.40;;;2.87;;
21878;SDS011;27908;42.708;23.278;2023-03-01T06:53:46;9.30;;;2.90;;
21878;SDS011;27908;42.708;23.278;2023-03-01T06:56:12;7.23;;;3.60;;
21878;SDS011;27908;42.708;23.278;2023-03-01T06:58:37;8.53;;;3.57;;
21878;SDS011;27908;42.708;23.278;2023-03-01T07:01:06;6.20;;;2.97;;
21878;SDS011;27908;42.708;23.278;2023-03-01T07:03:32;7.63;;;2.90;;
21878;SDS011;27908;42.708;23.278;2023-03-01T07:05:58;8.57;;;2.97;;
21878;SDS011;27908;42.708;23.278;2023-03-01T07:08:23;7.25;;;3.08;;
21878;SDS011;27908;42.708;23.278;2023-03-01T07:10:54;8.20;;;3.10;;
21878;SDS011;27908;42.708;23.278;2023-03-01T07:13:20;8.88;;;3.72;;
21878;SDS011;27908;42.708;23.278;2023-03-01T07:15:45;8.53;;;3.67;;
21878;SDS011;27908;42.708;23.278;2023-03-01T07:18:11;7.60;;;3.50;;
21878;SDS011;27908;42.708;23.278;2023-03-01T07:20:36;6.97;;;2.73;;
21878;SDS011;27908;42.708;23.278;2023-03-01T07:23:02;8.83;;;3.90;;
21878;SDS011;27908;42.708;23.278;2023-03-01T07:25:27;5.95;;;2.35;;
21878;SDS011;27908;42.708;23.278;2023-03-01T07:27:53;6.10;;;2.73;;
21878;SDS011;27908;42.708;23.278;2023-03-01T07:30:18;8.03;;;3.70;;
21878;SDS011;27908;42.708;23.278;2023-03-01T07:32:45;8.95;;;4.30;;
21878;SDS011;27908;42.708;23.278;2023-03-01T07:35:11;8.13;;;3.60;;
21878;SDS011;27908;42.708;23.278;2023-03-01T07:37:36;8.77;;;3.27;;
21878;SDS011;27908;42.708;23.278;2023-03-01T07:40:02;7.63;;;3.33;;
21878;SDS011;27908;42.708;23.278;2023-03-01T07:42:28;8.57;;;3.50;;
21878;SDS011;27908;42.708;23.278;2023-03-01T07:44:53;9.60;;;4.13;;
21878;SDS011;27908;42.708;23.278;2023-03-01T07:47:18;9.53;;;4.43;;
21878;SDS011;27908;42.708;23.278;2023-03-01T07:49:44;11.60;;;3.80;;
21878;SDS011;27908;42.708;23.278;2023-03-01T07:52:10;8.33;;;3.00;;
21878;SDS011;27908;42.708;23.278;2023-03-01T07:54:36;7.32;;;3.03;;
21878;SDS011;27908;42.708;23.278;2023-03-01T07:57:02;7.10;;;2.63;;
21878;SDS011;27908;42.708;23.278;2023-03-01T07:59:28;8.10;;;3.40;;
21878;SDS011;27908;42.708;23.278;2023-03-01T08:01:55;8.43;;;3.85;;
21878;SDS011;27908;42.708;23.278;2023-03-01T08:04:21;7.57;;;3.90;;
21878;SDS011;27908;42.708;23.278;2023-03-01T08:06:47;8.45;;;3.40;;
21878;SDS011;27908;42.708;23.278;2023-03-01T08:09:12;10.13;;;3.73;;
21878;SDS011;27908;42.708;23.278;2023-03-01T08:11:38;11.90;;;3.42;;
21878;SDS011;27908;42.708;23.278;2023-03-01T08:14:03;8.40;;;3.57;;
21878;SDS011;27908;42.708;23.278;2023-03-01T08:16:29;7.60;;;2.90;;
21878;SDS011;27908;42.708;23.278;2023-03-01T08:18:54;7.30;;;3.03;;
21878;SDS011;27908;42.708;23.278;2023-03-01T08:21:21;7.35;;;2.92;;
21878;SDS011;27908;42.708;23.278;2023-03-01T08:23:47;7.45;;;3.25;;
21878;SDS011;27908;42.708;23.278;2023-03-01T08:26:14;6.70;;;3.27;;
21878;SDS011;27908;42.708;23.278;2023-03-01T08:28:41;8.15;;;3.13;;
21878;SDS011;27908;42.708;23.278;2023-03-01T08:33:48;8.63;;;3.10;;
21878;SDS011;27908;42.708;23.278;2023-03-01T08:36:16;8.37;;;3.27;;
21878;SDS011;27908;42.708;23.278;2023-03-01T08:38:42;7.75;;;3.38;;
21878;SDS011;27908;42.708;23.278;2023-03-01T08:41:08;8.48;;;3.28;;
21878;SDS011;27908;42.708;23.278;2023-03-01T08:43:34;8.00;;;4.00;;
21878;SDS011;27908;42.708;23.278;2023-03-01T08:45:59;7.00;;;3.17;;
21878;SDS011;27908;42.708;23.278;2023-03-01T08:48:25;11.45;;;4.07;;
21878;SDS011;27908;42.708;23.278;2023-03-01T08:50:52;7.43;;;2.67;;
21878;SDS011;27908;42.708;23.278;2023-03-01T08:53:18;6.38;;;2.70;;
21878;SDS011;27908;42.708;23.278;2023-03-01T08:55:43;8.73;;;3.17;;
21878;SDS011;27908;42.708;23.278;2023-03-01T08:58:09;7.23;;;2.50;;
21878;SDS011;27908;42.708;23.278;2023-03-01T09:00:34;8.97;;;3.33;;
21878;SDS011;27908;42.708;23.278;2023-03-01T09:03:00;6.00;;;2.93;;
21878;SDS011;27908;42.708;23.278;2023-03-01T09:05:25;7.68;;;2.83;;
21878;SDS011;27908;42.708;23.278;2023-03-01T09:07:51;7.10;;;3.17;;
21878;SDS011;27908;42.708;23.278;2023-03-01T09:10:16;6.60;;;2.72;;
21878;SDS011;27908;42.708;23.278;2023-03-01T09:12:42;6.87;;;3.13;;
21878;SDS011;27908;42.708;23.278;2023-03-01T09:15:07;6.87;;;2.70;;
21878;SDS011;27908;42.708;23.278;2023-03-01T09:17:33;7.10;;;3.33;;
21878;SDS011;27908;42.708;23.278;2023-03-01T09:19:59;8.93;;;2.20;;
21878;SDS011;27908;42.708;23.278;2023-03-01T09:22:24;22.92;;;7.55;;
21878;SDS011;27908;42.708;23.278;2023-03-01T09:24:50;26.47;;;7.67;;
21878;SDS011;27908;42.708;23.278;2023-03-01T09:27:15;9.07;;;3.60;;
21878;SDS011;27908;42.708;23.278;2023-03-01T09:29:43;7.35;;;2.92;;
21878;SDS011;27908;42.708;23.278;2023-03-01T09:32:09;10.43;;;4.07;;
21878;SDS011;27908;42.708;23.278;2023-03-01T09:34:35;6.93;;;3.13;;
21878;SDS011;27908;42.708;23.278;2023-03-01T09:37:23;7.97;;;3.65;;
21878;SDS011;27908;42.708;23.278;2023-03-01T09:39:48;11.13;;;3.73;;
21878;SDS011;27908;42.708;23.278;2023-03-01T09:42:14;8.07;;;4.00;;
21878;SDS011;27908;42.708;23.278;2023-03-01T09:47:17;6.90;;;2.40;;
21878;SDS011;27908;42.708;23.278;2023-03-01T09:50:13;5.97;;;2.50;;
21878;SDS011;27908;42.708;23.278;2023-03-01T09:52:43;7.35;;;2.50;;
21878;SDS011;27908;42.708;23.278;2023-03-01T09:55:15;5.27;;;1.83;;
21878;SDS011;27908;42.708;23.278;2023-03-01T10:00:39;6.75;;;3.08;;
21878;SDS011;27908;42.708;23.278;2023-03-01T10:03:12;6.80;;;2.85;;
21878;SDS011;27908;42.708;23.278;2023-03-01T10:10:56;6.22;;;2.08;;
21878;SDS011;27908;42.708;23.278;2023-03-01T10:13:28;5.78;;;2.30;;
21878;SDS011;27908;42.708;23.278;2023-03-01T10:16:05;4.45;;;1.58;;
21878;SDS011;27908;42.708;23.278;2023-03-01T10:18:38;5.57;;;2.00;;
21878;SDS011;27908;42.708;23.278;2023-03-01T10:23:43;6.03;;;2.25;;
21878;SDS011;27908;42.708;23.278;2023-03-01T10:26:12;7.00;;;2.30;;
21878;SDS011;27908;42.708;23.278;2023-03-01T10:28:53;6.67;;;3.20;;
21878;SDS011;27908;42.708;23.278;2023-03-01T10:31:31;5.82;;;2.20;;
21878;SDS011;27908;42.708;23.278;2023-03-01T10:34:10;6.18;;;2.60;;
21878;SDS011;27908;42.708;23.278;2023-03-01T10:36:38;6.32;;;2.47;;
21878;SDS011;27908;42.708;23.278;2023-03-01T10:39:10;5.68;;;2.00;;
21878;SDS011;27908;42.708;23.278;2023-03-01T10:47:02;7.13;;;2.55;;
21878;SDS011;27908;42.708;23.278;2023-03-01T10:49:29;6.57;;;2.67;;
21878;SDS011;27908;42.708;23.278;2023-03-01T10:51:54;6.07;;;2.87;;
21878;SDS011;27908;42.708;23.278;2023-03-01T10:54:29;6.90;;;2.70;;
21878;SDS011;27908;42.708;23.278;2023-03-01T10:56:59;5.88;;;2.28;;
21878;SDS011;27908;42.708;23.278;2023-03-01T10:59:33;6.38;;;2.30;;
21878;SDS011;27908;42.708;23.278;2023-03-01T11:02:16;6.25;;;1.80;;
21878;SDS011;27908;42.708;23.278;2023-03-01T11:07:23;5.20;;;1.77;;
21878;SDS011;27908;42.708;23.278;2023-03-01T11:09:48;5.28;;;1.75;;
21878;SDS011;27908;42.708;23.278;2023-03-01T11:12:14;6.20;;;1.87;;
21878;SDS011;27908;42.708;23.278;2023-03-01T11:14:48;5.15;;;1.98;;
21878;SDS011;27908;42.708;23.278;2023-03-01T11:17:27;7.05;;;2.17;;
21878;SDS011;27908;42.708;23.278;2023-03-01T11:20:02;5.80;;;2.43;;
21878;SDS011;27908;42.708;23.278;2023-03-01T11:25:48;5.10;;;1.80;;
21878;SDS011;27908;42.708;23.278;2023-03-01T11:28:19;5.97;;;1.60;;
21878;SDS011;27908;42.708;23.278;2023-03-01T11:31:00;6.13;;;2.15;;
21878;SDS011;27908;42.708;23.278;2023-03-01T11:33:49;6.93;;;1.90;;
21878;SDS011;27908;42.708;23.278;2023-03-01T11:39:39;5.60;;;2.17;;
21878;SDS011;27908;42.708;23.278;2023-03-01T11:42:20;5.45;;;1.92;;
21878;SDS011;27908;42.708;23.278;2023-03-01T11:44:51;5.85;;;2.30;;
21878;SDS011;27908;42.708;23.278;2023-03-01T12:06:42;5.65;;;2.40;;
21878;SDS011;27908;42.708;23.278;2023-03-01T12:09:26;6.57;;;2.72;;
21878;SDS011;27908;42.708;23.278;2023-03-01T12:20:39;6.60;;;2.67;;
21878;SDS011;27908;42.708;23.278;2023-03-01T12:26:06;8.93;;;2.50;;
21878;SDS011;27908;42.708;23.278;2023-03-01T12:37:29;6.65;;;3.00;;
21878;SDS011;27908;42.708;23.278;2023-03-01T12:43:03;10.23;;;3.10;;
21878;SDS011;27908;42.708;23.278;2023-03-01T12:45:54;7.38;;;2.88;;
21878;SDS011;27908;42.708;23.278;2023-03-01T12:51:14;6.80;;;2.80;;
21878;SDS011;27908;42.708;23.278;2023-03-01T12:53:47;8.88;;;2.95;;
21878;SDS011;27908;42.708;23.278;2023-03-01T12:56:15;8.50;;;3.23;;
21878;SDS011;27908;42.708;23.278;2023-03-01T13:09:39;7.73;;;3.07;;
21878;SDS011;27908;42.708;23.278;2023-03-01T13:17:54;6.60;;;3.20;;
21878;SDS011;27908;42.708;23.278;2023-03-01T13:20:24;6.60;;;3.00;;
21878;SDS011;27908;42.708;23.278;2023-03-01T13:38:58;6.97;;;3.10;;
21878;SDS011;27908;42.708;23.278;2023-03-01T13:44:21;7.93;;;3.30;;
21878;SDS011;27908;42.708;23.278;2023-03-01T13:46:59;12.30;;;3.30;;
21878;SDS011;27908;42.708;23.278;2023-03-01T13:58:05;8.63;;;2.90;;
21878;SDS011;27908;42.708;23.278;2023-03-01T14:01:03;9.68;;;3.20;;
21878;SDS011;27908;42.708;23.278;2023-03-01T14:03:30;8.43;;;3.80;;
21878;SDS011;27908;42.708;23.278;2023-03-01T14:05:58;8.02;;;3.05;;
21878;SDS011;27908;42.708;23.278;2023-03-01T14:08:31;6.80;;;2.83;;
21878;SDS011;27908;42.708;23.278;2023-03-01T14:21:32;8.70;;;3.08;;
21878;SDS011;27908;42.708;23.278;2023-03-01T14:23:58;8.07;;;3.20;;
21878;SDS011;27908;42.708;23.278;2023-03-01T14:26:24;8.53;;;3.00;;
21878;SDS011;27908;42.708;23.278;2023-03-01T14:28:49;8.13;;;3.15;;
21878;SDS011;27908;42.708;23.278;2023-03-01T14:33:56;7.23;;;3.00;;
21878;SDS011;27908;42.708;23.278;2023-03-01T14:36:25;8.15;;;2.40;;
21878;SDS011;27908;42.708;23.278;2023-03-01T14:38:53;9.38;;;3.25;;
21878;SDS011;27908;42.708;23.278;2023-03-01T14:41:22;6.67;;;3.13;;
21878;SDS011;27908;42.708;23.278;2023-03-01T14:43:51;6.50;;;2.13;;
21878;SDS011;27908;42.708;23.278;2023-03-01T14:46:24;6.90;;;2.97;;
21878;SDS011;27908;42.708;23.278;2023-03-01T14:48:55;8.50;;;3.47;;
21878;SDS011;27908;42.708;23.278;2023-03-01T14:51:26;8.43;;;3.33;;
21878;SDS011;27908;42.708;23.278;2023-03-01T14:53:51;6.67;;;2.57;;
21878;SDS011;27908;42.708;23.278;2023-03-01T14:56:18;10.20;;;3.30;;
21878;SDS011;27908;42.708;23.278;2023-03-01T14:58:44;7.82;;;3.08;;
21878;SDS011;27908;42.708;23.278;2023-03-01T15:01:10;7.20;;;2.70;;
21878;SDS011;27908;42.708;23.278;2023-03-01T15:03:45;9.60;;;3.17;;
21878;SDS011;27908;42.708;23.278;2023-03-01T15:06:17;7.78;;;2.70;;
21878;SDS011;27908;42.708;23.278;2023-03-01T15:08:45;6.97;;;2.50;;
21878;SDS011;27908;42.708;23.278;2023-03-01T15:13:47;6.90;;;2.40;;
21878;SDS011;27908;42.708;23.278;2023-03-01T15:16:14;7.57;;;3.33;;
21878;SDS011;27908;42.708;23.278;2023-03-01T15:18:47;9.77;;;3.40;;
21878;SDS011;27908;42.708;23.278;2023-03-01T15:21:16;11.07;;;3.20;;
21878;SDS011;27908;42.708;23.278;2023-03-01T15:23:46;8.18;;;3.00;;
21878;SDS011;27908;42.708;23.278;2023-03-01T15:26:24;10.30;;;3.28;;
21878;SDS011;27908;42.708;23.278;2023-03-01T15:28:53;8.88;;;3.63;;
21878;SDS011;27908;42.708;23.278;2023-03-01T15:31:24;7.43;;;2.33;;
21878;SDS011;27908;42.708;23.278;2023-03-01T15:33:51;6.65;;;2.22;;
21878;SDS011;27908;42.708;23.278;2023-03-01T15:36:30;6.57;;;2.75;;
21878;SDS011;27908;42.708;23.278;2023-03-01T15:39:26;8.87;;;2.90;;
21878;SDS011;27908;42.708;23.278;2023-03-01T15:41:53;7.13;;;2.60;;
21878;SDS011;27908;42.708;23.278;2023-03-01T15:46:52;8.50;;;2.97;;
21878;SDS011;27908;42.708;23.278;2023-03-01T15:49:38;10.33;;;3.60;;
21878;SDS011;27908;42.708;23.278;2023-03-01T15:52:10;10.00;;;3.40;;
21878;SDS011;27908;42.708;23.278;2023-03-01T15:54:43;9.27;;;3.13;;
21878;SDS011;27908;42.708;23.278;2023-03-01T15:57:13;8.73;;;3.08;;
21878;SDS011;27908;42.708;23.278;2023-03-01T15:59:41;15.70;;;4.80;;
21878;SDS011;27908;42.708;23.278;2023-03-01T16:02:11;9.07;;;3.58;;
21878;SDS011;27908;42.708;23.278;2023-03-01T16:04:40;10.25;;;3.22;;
21878;SDS011;27908;42.708;23.278;2023-03-01T16:07:05;8.73;;;3.47;;
21878;SDS011;27908;42.708;23.278;2023-03-01T16:09:31;10.73;;;3.50;;
21878;SDS011;27908;42.708;23.278;2023-03-01T16:11:57;8.23;;;2.83;;
21878;SDS011;27908;42.708;23.278;2023-03-01T16:14:22;9.70;;;3.38;;
21878;SDS011;27908;42.708;23.278;2023-03-01T16:16:48;9.70;;;3.30;;
21878;SDS011;27908;42.708;23.278;2023-03-01T16:19:14;7.93;;;3.70;;
21878;SDS011;27908;42.708;23.278;2023-03-01T16:21:40;10.10;;;4.10;;
21878;SDS011;27908;42.708;23.278;2023-03-01T16:24:07;9.50;;;3.10;;
21878;SDS011;27908;42.708;23.278;2023-03-01T16:26:33;11.77;;;3.42;;
21878;SDS011;27908;42.708;23.278;2023-03-01T16:28:58;9.43;;;3.37;;
21878;SDS011;27908;42.708;23.278;2023-03-01T16:31:24;10.37;;;3.47;;
21878;SDS011;27908;42.708;23.278;2023-03-01T16:33:55;11.07;;;4.23;;
21878;SDS011;27908;42.708;23.278;2023-03-01T16:36:22;9.48;;;3.95;;
21878;SDS011;27908;42.708;23.278;2023-03-01T16:38:49;11.23;;;3.97;;
21878;SDS011;27908;42.708;23.278;2023-03-01T16:41:15;8.40;;;2.97;;
21878;SDS011;27908;42.708;23.278;2023-03-01T16:43:43;9.00;;;3.45;;
21878;SDS011;27908;42.708;23.278;2023-03-01T16:46:12;9.97;;;4.83;;
21878;SDS011;27908;42.708;23.278;2023-03-01T16:48:39;10.07;;;3.47;;
21878;SDS011;27908;42.708;23.278;2023-03-01T16:51:05;9.63;;;4.28;;
21878;SDS011;27908;42.708;23.278;2023-03-01T16:53:32;24.60;;;14.95;;
21878;SDS011;27908;42.708;23.278;2023-03-01T16:55:59;28.57;;;20.27;;
21878;SDS011;27908;42.708;23.278;2023-03-01T16:58:25;10.40;;;4.47;;
21878;SDS011;27908;42.708;23.278;2023-03-01T17:00:51;13.93;;;5.27;;
21878;SDS011;27908;42.708;23.278;2023-03-01T17:03:18;11.17;;;4.23;;
21878;SDS011;27908;42.708;23.278;2023-03-01T17:05:45;11.02;;;4.88;;
21878;SDS011;27908;42.708;23.278;2023-03-01T17:08:10;21.23;;;10.87;;
21878;SDS011;27908;42.708;23.278;2023-03-01T17:10:35;25.88;;;13.07;;
21878;SDS011;27908;42.708;23.278;2023-03-01T17:13:01;24.30;;;15.13;;